Aviation Digital Data Service (ADDS)

Output produced by METARs form (0428 UTC 19 January 2017)
found at http://aviationweather.gov/adds/metars/
 
KMPV 190411Z 1904/1924 18004KT P6SM VCSH SCT009 OVC025 
     TEMPO 1904/1907 BKN009 
     FM190700 18004KT 6SM BR OVC008 
     FM191000 00000KT 6SM BR OVC020 
     FM191200 00000KT P6SM OVC020 
     FM191900 30004KT P6SM OVC025 
     FM192100 31004KT P6SM OVC035